This is the latest recevied weather packets stored in our database for station/object CW2401. If no packets are shown the sender has not sent any weather packets the latest 10 day(s).
| Time | Temp. | Humidity | Pressure | Rain* | Wind** | Luminosity | Snow |
|---|---|---|---|---|---|---|---|
| 1777817886 | 14.44° C | 47% | 1020.8 hPa | 0 mm | - | - | - |
| 1777817282 | 14.44° C | 49% | 1020.7 hPa | 0 mm | - | - | - |
| 1777815718 | 13.33° C | 54% | 1020.6 hPa | 0 mm | - | - | - |
| 1777815599 | 13.33° C | 53% | 1020.6 hPa | 0 mm | - | - | - |
| 1777813797 | 10° C | 67% | 1020.6 hPa | 0 mm | - | - | - |
| 1777813674 | 10° C | 67% | 1020.6 hPa | 0 mm | - | - | - |
| 1777811867 | 7.22° C | 82% | 1020.5 hPa | 0 mm | - | - | - |
| 1777811749 | 7.22° C | 83% | 1020.5 hPa | 0 mm | - | - | - |
| 1777811142 | 6.11° C | 89% | 1020.4 hPa | 0 mm | - | - | - |
| 1777811021 | 6.11° C | 90% | 1020.4 hPa | 0 mm | - | - | - |
| 1777810901 | 6.11° C | 90% | 1020.4 hPa | 0 mm | - | - | - |
| 1777808734 | 3.89° C | 92% | 1020.3 hPa | 0 mm | - | - | - |
| 1777806931 | 3.33° C | 92% | 1019.8 hPa | 0 mm | - | - | - |
| 1777805847 | 2.78° C | 91% | 1019.3 hPa | 0 mm | - | - | - |
| 1777805246 | 3.33° C | 91% | 1019.2 hPa | 0 mm | - | - | - |
| 1777804647 | 3.33° C | 91% | 1019 hPa | 0 mm | - | - | - |
| 1777804406 | 3.33° C | 91% | 1018.9 hPa | 0 mm | - | - | - |
| 1777804045 | 3.33° C | 91% | 1018.8 hPa | 0 mm | - | - | - |
| 1777801886 | 3.89° C | 91% | 1018.3 hPa | 0 mm | - | - | - |
| 1777801645 | 3.89° C | 91% | 1018.3 hPa | 0 mm | - | - | - |
| 1777800685 | 3.89° C | 91% | 1018.1 hPa | 0 mm | - | - | - |
| 1777800566 | 3.89° C | 91% | 1018.1 hPa | 0 mm | - | - | - |
| 1777799966 | 3.89° C | 91% | 1018 hPa | 0 mm | - | - | - |
| 1777798151 | 3.89° C | 91% | 1017.7 hPa | 0 mm | - | - | - |
| 1777797546 | 3.89° C | 91% | 1017.6 hPa | 0 mm | - | - | - |
* Rain latest hour (hover to see other rain measurements)
** Current wind speed in m/s (hover to see current wind gust speed)